sensor_id;sensor_type;location;lat;lon;timestamp;pressure;altitude;pressure_sealevel;temperature;humidity
39613;BME280;25303;48.896;13.342;2022-09-29T00:00:06;91454.97;;;7.56;79.14
39613;BME280;25303;48.896;13.342;2022-09-29T00:02:49;91448.69;;;7.58;79.16
39613;BME280;25303;48.896;13.342;2022-09-29T00:05:32;91451.09;;;7.60;79.27
39613;BME280;25303;48.896;13.342;2022-09-29T00:08:16;91453.81;;;7.58;78.83
39613;BME280;25303;48.896;13.342;2022-09-29T00:10:59;91448.25;;;7.55;79.02
39613;BME280;25303;48.896;13.342;2022-09-29T00:13:42;91455.94;;;7.55;79.18
39613;BME280;25303;48.896;13.342;2022-09-29T00:16:27;91442.31;;;7.54;79.23
39613;BME280;25303;48.896;13.342;2022-09-29T00:19:10;91449.03;;;7.55;79.15
39613;BME280;25303;48.896;13.342;2022-09-29T00:21:52;91452.56;;;7.54;79.15
39613;BME280;25303;48.896;13.342;2022-09-29T00:24:35;91452.56;;;7.54;79.24
39613;BME280;25303;48.896;13.342;2022-09-29T00:27:18;91451.16;;;7.52;79.15
39613;BME280;25303;48.896;13.342;2022-09-29T00:30:02;91463.16;;;7.51;79.04
39613;BME280;25303;48.896;13.342;2022-09-29T00:32:46;91459.78;;;7.51;79.27
39613;BME280;25303;48.896;13.342;2022-09-29T00:35:29;91460.59;;;7.51;79.31
39613;BME280;25303;48.896;13.342;2022-09-29T00:38:12;91458.03;;;7.51;79.49
39613;BME280;25303;48.896;13.342;2022-09-29T00:40:55;91459.97;;;7.49;79.50
39613;BME280;25303;48.896;13.342;2022-09-29T00:43:51;91459.34;;;7.47;79.36
39613;BME280;25303;48.896;13.342;2022-09-29T00:46:41;91455.19;;;7.46;79.63
39613;BME280;25303;48.896;13.342;2022-09-29T00:49:30;91450.84;;;7.47;79.58
39613;BME280;25303;48.896;13.342;2022-09-29T00:52:19;91446.88;;;7.44;79.66
39613;BME280;25303;48.896;13.342;2022-09-29T00:55:07;91450.25;;;7.44;79.88
39613;BME280;25303;48.896;13.342;2022-09-29T00:57:55;91440.81;;;7.45;79.87
39613;BME280;25303;48.896;13.342;2022-09-29T01:00:39;91437.28;;;7.46;79.81
39613;BME280;25303;48.896;13.342;2022-09-29T01:03:25;91438.88;;;7.47;79.79
39613;BME280;25303;48.896;13.342;2022-09-29T01:06:15;91429.41;;;7.48;79.79
39613;BME280;25303;48.896;13.342;2022-09-29T01:09:02;91435.34;;;7.48;79.72
39613;BME280;25303;48.896;13.342;2022-09-29T01:11:45;91430.38;;;7.47;79.64
39613;BME280;25303;48.896;13.342;2022-09-29T01:14:29;91435.88;;;7.43;79.66
39613;BME280;25303;48.896;13.342;2022-09-29T01:17:13;91437.81;;;7.41;79.88
39613;BME280;25303;48.896;13.342;2022-09-29T01:20:02;91432.84;;;7.40;79.66
39613;BME280;25303;48.896;13.342;2022-09-29T01:23:25;91450.94;;;7.38;79.81
39613;BME280;25303;48.896;13.342;2022-09-29T01:26:36;91442.00;;;7.34;79.85
39613;BME280;25303;48.896;13.342;2022-09-29T01:32:51;91448.59;;;7.28;80.00
39613;BME280;25303;48.896;13.342;2022-09-29T01:35:42;91445.59;;;7.25;80.02
39613;BME280;25303;48.896;13.342;2022-09-29T01:38:38;91448.84;;;7.19;80.16
39613;BME280;25303;48.896;13.342;2022-09-29T01:41:30;91445.50;;;7.18;80.17
39613;BME280;25303;48.896;13.342;2022-09-29T01:44:21;91452.38;;;7.18;80.27
39613;BME280;25303;48.896;13.342;2022-09-29T01:47:08;91449.81;;;7.18;80.18
39613;BME280;25303;48.896;13.342;2022-09-29T01:49:58;91440.53;;;7.17;80.06
39613;BME280;25303;48.896;13.342;2022-09-29T01:52:45;91449.03;;;7.17;80.20
39613;BME280;25303;48.896;13.342;2022-09-29T01:55:31;91443.28;;;7.15;80.21
39613;BME280;25303;48.896;13.342;2022-09-29T01:58:20;91443.28;;;7.15;80.14
39613;BME280;25303;48.896;13.342;2022-09-29T02:01:09;91444.25;;;7.14;80.08
39613;BME280;25303;48.896;13.342;2022-09-29T02:03:57;91439.13;;;7.14;80.09
39613;BME280;25303;48.896;13.342;2022-09-29T02:06:47;91440.09;;;7.13;80.24
39613;BME280;25303;48.896;13.342;2022-09-29T02:09:35;91440.25;;;7.11;80.24
39613;BME280;25303;48.896;13.342;2022-09-29T02:12:24;91439.63;;;7.09;80.03
39613;BME280;25303;48.896;13.342;2022-09-29T02:15:13;91441.56;;;7.07;79.94
39613;BME280;25303;48.896;13.342;2022-09-29T02:18:05;91435.63;;;7.07;80.13
39613;BME280;25303;48.896;13.342;2022-09-29T02:20:51;91437.22;;;7.08;80.26
39613;BME280;25303;48.896;13.342;2022-09-29T02:23:35;91437.22;;;7.08;80.00
39613;BME280;25303;48.896;13.342;2022-09-29T02:26:19;91442.00;;;7.11;80.06
39613;BME280;25303;48.896;13.342;2022-09-29T02:29:03;91440.41;;;7.10;80.26
39613;BME280;25303;48.896;13.342;2022-09-29T02:31:47;91437.84;;;7.10;80.26
39613;BME280;25303;48.896;13.342;2022-09-29T02:34:35;91443.59;;;7.12;80.34
39613;BME280;25303;48.896;13.342;2022-09-29T02:37:30;91440.09;;;7.13;80.27
39613;BME280;25303;48.896;13.342;2022-09-29T02:40:27;91441.03;;;7.12;80.30
39613;BME280;25303;48.896;13.342;2022-09-29T02:43:22;91440.09;;;7.13;80.33
39613;BME280;25303;48.896;13.342;2022-09-29T02:46:17;91440.72;;;7.15;80.41
39613;BME280;25303;48.896;13.342;2022-09-29T02:49:26;91441.50;;;7.15;80.43
39613;BME280;25303;48.896;13.342;2022-09-29T02:52:20;91440.38;;;7.18;80.50
39613;BME280;25303;48.896;13.342;2022-09-29T02:55:12;91439.75;;;7.16;80.41
39613;BME280;25303;48.896;13.342;2022-09-29T02:58:02;91433.81;;;7.15;80.38
39613;BME280;25303;48.896;13.342;2022-09-29T03:00:48;91429.50;;;7.16;80.33
39613;BME280;25303;48.896;13.342;2022-09-29T03:03:32;91431.44;;;7.14;80.48
39613;BME280;25303;48.896;13.342;2022-09-29T03:06:17;91431.44;;;7.14;80.25
39613;BME280;25303;48.896;13.342;2022-09-29T03:09:02;91429.66;;;7.14;80.21
39613;BME280;25303;48.896;13.342;2022-09-29T03:11:45;91429.84;;;7.13;80.29
39613;BME280;25303;48.896;13.342;2022-09-29T03:14:29;91432.22;;;7.14;80.31
39613;BME280;25303;48.896;13.342;2022-09-29T03:17:12;91440.72;;;7.15;80.34
39613;BME280;25303;48.896;13.342;2022-09-29T03:19:55;91440.38;;;7.18;80.42
39613;BME280;25303;48.896;13.342;2022-09-29T03:22:38;91441.97;;;7.19;80.44
39613;BME280;25303;48.896;13.342;2022-09-29T03:25:21;91439.22;;;7.21;80.39
39613;BME280;25303;48.896;13.342;2022-09-29T03:28:04;91437.44;;;7.21;80.23
39613;BME280;25303;48.896;13.342;2022-09-29T03:30:48;91437.28;;;7.23;80.23
39613;BME280;25303;48.896;13.342;2022-09-29T03:33:31;91442.56;;;7.21;80.20
39613;BME280;25303;48.896;13.342;2022-09-29T03:36:14;91444.53;;;7.19;80.06
39613;BME280;25303;48.896;13.342;2022-09-29T03:38:57;91439.41;;;7.19;80.22
39613;BME280;25303;48.896;13.342;2022-09-29T03:41:40;91434.09;;;7.21;80.23
39613;BME280;25303;48.896;13.342;2022-09-29T03:44:23;91448.50;;;7.22;80.29
39613;BME280;25303;48.896;13.342;2022-09-29T03:47:07;91445.75;;;7.23;80.30
39613;BME280;25303;48.896;13.342;2022-09-29T03:49:50;91442.22;;;7.24;80.08
39613;BME280;25303;48.896;13.342;2022-09-29T03:52:33;91447.97;;;7.26;79.92
39613;BME280;25303;48.896;13.342;2022-09-29T03:55:16;91442.72;;;7.28;80.04
39613;BME280;25303;48.896;13.342;2022-09-29T03:57:59;91442.72;;;7.28;79.83
39613;BME280;25303;48.896;13.342;2022-09-29T04:00:42;91447.00;;;7.27;79.83
39613;BME280;25303;48.896;13.342;2022-09-29T04:03:26;91448.78;;;7.27;79.95
39613;BME280;25303;48.896;13.342;2022-09-29T04:06:09;91449.56;;;7.27;80.17
39613;BME280;25303;48.896;13.342;2022-09-29T04:08:52;91453.09;;;7.26;80.00
39613;BME280;25303;48.896;13.342;2022-09-29T04:11:35;91455.66;;;7.26;80.07
39613;BME280;25303;48.896;13.342;2022-09-29T04:14:17;91450.53;;;7.26;80.08
39613;BME280;25303;48.896;13.342;2022-09-29T04:17:00;91461.59;;;7.27;80.07
39613;BME280;25303;48.896;13.342;2022-09-29T04:19:45;91458.22;;;7.26;80.22
39613;BME280;25303;48.896;13.342;2022-09-29T04:22:27;91453.72;;;7.28;80.15
39613;BME280;25303;48.896;13.342;2022-09-29T04:25:10;91450.19;;;7.29;80.16
39613;BME280;25303;48.896;13.342;2022-09-29T04:27:53;91452.75;;;7.29;80.13
39613;BME280;25303;48.896;13.342;2022-09-29T04:30:36;91448.59;;;7.28;79.90
39613;BME280;25303;48.896;13.342;2022-09-29T04:33:19;91441.44;;;7.24;79.80
39613;BME280;25303;48.896;13.342;2022-09-29T04:36:04;91448.94;;;7.25;79.79
39613;BME280;25303;48.896;13.342;2022-09-29T04:38:47;91447.19;;;7.26;80.07
39613;BME280;25303;48.896;13.342;2022-09-29T04:41:32;91448.59;;;7.28;80.11
39613;BME280;25303;48.896;13.342;2022-09-29T04:44:16;91445.88;;;7.30;80.24
39613;BME280;25303;48.896;13.342;2022-09-29T04:47:00;91452.44;;;7.33;80.12
39613;BME280;25303;48.896;13.342;2022-09-29T04:49:43;91446.34;;;7.34;80.14
39613;BME280;25303;48.896;13.342;2022-09-29T04:52:27;91446.97;;;7.36;80.20
39613;BME280;25303;48.896;13.342;2022-09-29T04:55:11;91449.53;;;7.36;80.32
39613;BME280;25303;48.896;13.342;2022-09-29T04:57:54;91438.28;;;7.37;80.12
39613;BME280;25303;48.896;13.342;2022-09-29T05:00:37;91448.53;;;7.37;80.02
39613;BME280;25303;48.896;13.342;2022-09-29T05:03:20;91441.22;;;7.34;79.83
39613;BME280;25303;48.896;13.342;2022-09-29T05:06:04;91443.16;;;7.32;79.90
39613;BME280;25303;48.896;13.342;2022-09-29T05:08:48;91448.59;;;7.28;79.83
39613;BME280;25303;48.896;13.342;2022-09-29T05:11:32;91444.28;;;7.29;79.82
39613;BME280;25303;48.896;13.342;2022-09-29T05:14:14;91436.59;;;7.29;79.90
39613;BME280;25303;48.896;13.342;2022-09-29T05:16:57;91435.03;;;7.28;79.86
39613;BME280;25303;48.896;13.342;2022-09-29T05:19:40;91438.56;;;7.27;79.87
39613;BME280;25303;48.896;13.342;2022-09-29T05:22:23;91437.59;;;7.28;80.03
39613;BME280;25303;48.896;13.342;2022-09-29T05:25:08;91447.00;;;7.27;79.80
39613;BME280;25303;48.896;13.342;2022-09-29T05:27:52;91454.88;;;7.26;79.78
39613;BME280;25303;48.896;13.342;2022-09-29T05:30:34;91456.63;;;7.25;79.77
39613;BME280;25303;48.896;13.342;2022-09-29T05:33:17;91450.88;;;7.23;79.58
39613;BME280;25303;48.896;13.342;2022-09-29T05:36:02;91456.00;;;7.23;79.68
39613;BME280;25303;48.896;13.342;2022-09-29T05:38:47;91454.25;;;7.24;79.53
39613;BME280;25303;48.896;13.342;2022-09-29T05:41:31;91456.81;;;7.24;79.52
39613;BME280;25303;48.896;13.342;2022-09-29T05:44:14;91460.16;;;7.24;79.52
39613;BME280;25303;48.896;13.342;2022-09-29T05:46:58;91460.34;;;7.23;79.49
39613;BME280;25303;48.896;13.342;2022-09-29T05:49:41;91451.56;;;7.17;79.51
39613;BME280;25303;48.896;13.342;2022-09-29T05:52:23;91457.66;;;7.16;79.57
39613;BME280;25303;48.896;13.342;2022-09-29T05:55:07;91460.03;;;7.18;79.77
39613;BME280;25303;48.896;13.342;2022-09-29T05:57:53;91461.00;;;7.17;79.71
39613;BME280;25303;48.896;13.342;2022-09-29T06:00:35;91457.38;;;7.11;79.24
39613;BME280;25303;48.896;13.342;2022-09-29T06:03:18;91459.63;;;7.06;79.10
39613;BME280;25303;48.896;13.342;2022-09-29T06:06:06;91455.84;;;7.02;79.48
39613;BME280;25303;48.896;13.342;2022-09-29T06:08:49;91460.00;;;7.03;79.43
39613;BME280;25303;48.896;13.342;2022-09-29T06:11:33;91459.00;;;7.04;79.39
39613;BME280;25303;48.896;13.342;2022-09-29T06:14:17;91455.66;;;7.03;79.46
39613;BME280;25303;48.896;13.342;2022-09-29T06:17:00;91451.84;;;6.99;80.13
39613;BME280;25303;48.896;13.342;2022-09-29T06:19:43;91449.47;;;6.97;79.65
39613;BME280;25303;48.896;13.342;2022-09-29T06:22:26;91450.59;;;6.95;79.54
39613;BME280;25303;48.896;13.342;2022-09-29T06:25:09;91447.25;;;6.94;79.73
39613;BME280;25303;48.896;13.342;2022-09-29T06:27:52;91446.28;;;6.95;79.82
39613;BME280;25303;48.896;13.342;2022-09-29T06:30:36;91434.88;;;6.98;80.17
39613;BME280;25303;48.896;13.342;2022-09-29T06:33:19;91438.09;;;7.00;80.01
39613;BME280;25303;48.896;13.342;2022-09-29T06:36:08;91437.31;;;6.99;79.94
39613;BME280;25303;48.896;13.342;2022-09-29T06:39:12;91452.47;;;7.01;80.01
39613;BME280;25303;48.896;13.342;2022-09-29T06:41:55;91453.28;;;7.02;80.04
39613;BME280;25303;48.896;13.342;2022-09-29T06:44:38;91454.88;;;7.03;79.98
39613;BME280;25303;48.896;13.342;2022-09-29T06:47:22;91442.69;;;7.05;80.03
39613;BME280;25303;48.896;13.342;2022-09-29T06:50:06;91436.25;;;7.09;80.00
39613;BME280;25303;48.896;13.342;2022-09-29T06:53:03;91426.22;;;7.07;79.84
39613;BME280;25303;48.896;13.342;2022-09-29T06:55:51;91436.97;;;7.03;80.19
39613;BME280;25303;48.896;13.342;2022-09-29T06:58:34;91444.13;;;7.07;80.16
39613;BME280;25303;48.896;13.342;2022-09-29T07:01:17;91437.72;;;7.11;80.17
39613;BME280;25303;48.896;13.342;2022-09-29T07:04:01;91439.75;;;7.16;80.20
39613;BME280;25303;48.896;13.342;2022-09-29T07:06:44;91443.38;;;7.22;80.54
39613;BME280;25303;48.896;13.342;2022-09-29T07:09:27;91442.09;;;7.26;80.59
39613;BME280;25303;48.896;13.342;2022-09-29T07:12:10;91436.59;;;7.29;80.63
39613;BME280;25303;48.896;13.342;2022-09-29T07:14:53;91438.81;;;7.32;80.31
39613;BME280;25303;48.896;13.342;2022-09-29T07:17:36;91444.75;;;7.33;80.25
39613;BME280;25303;48.896;13.342;2022-09-29T07:20:21;91438.81;;;7.32;80.39
39613;BME280;25303;48.896;13.342;2022-09-29T07:23:04;91439.28;;;7.36;80.50
39613;BME280;25303;48.896;13.342;2022-09-29T07:25:46;91443.69;;;7.42;80.60
39613;BME280;25303;48.896;13.342;2022-09-29T07:28:33;91452.44;;;7.48;80.69
39613;BME280;25303;48.896;13.342;2022-09-29T07:31:18;91457.69;;;7.54;80.84
39613;BME280;25303;48.896;13.342;2022-09-29T07:34:02;91459.56;;;7.60;80.81
39613;BME280;25303;48.896;13.342;2022-09-29T07:36:46;91462.56;;;7.64;80.83
39613;BME280;25303;48.896;13.342;2022-09-29T07:39:29;91457.53;;;7.71;80.77
39613;BME280;25303;48.896;13.342;2022-09-29T07:42:12;91462.16;;;7.75;80.86
39613;BME280;25303;48.896;13.342;2022-09-29T07:44:55;91458.88;;;7.82;80.59
39613;BME280;25303;48.896;13.342;2022-09-29T07:47:38;91461.91;;;7.85;80.67
39613;BME280;25303;48.896;13.342;2022-09-29T07:50:21;91467.81;;;7.86;80.65
39613;BME280;25303;48.896;13.342;2022-09-29T07:53:05;91469.50;;;7.94;80.72
39613;BME280;25303;48.896;13.342;2022-09-29T07:55:48;91471.63;;;8.05;81.01
39613;BME280;25303;48.896;13.342;2022-09-29T07:58:32;91465.28;;;8.16;80.87
39613;BME280;25303;48.896;13.342;2022-09-29T08:01:17;91475.56;;;8.31;81.10
39613;BME280;25303;48.896;13.342;2022-09-29T08:04:01;91479.59;;;8.40;80.63
39613;BME280;25303;48.896;13.342;2022-09-29T08:06:44;91484.03;;;8.46;80.58
39613;BME280;25303;48.896;13.342;2022-09-29T08:09:28;91482.13;;;8.48;80.25
39613;BME280;25303;48.896;13.342;2022-09-29T08:12:21;91479.56;;;8.48;79.98
39613;BME280;25303;48.896;13.342;2022-09-29T08:15:08;91490.59;;;8.49;79.76
39613;BME280;25303;48.896;13.342;2022-09-29T08:17:51;91488.53;;;8.44;79.66
39613;BME280;25303;48.896;13.342;2022-09-29T08:20:34;91501.69;;;8.49;79.61
39613;BME280;25303;48.896;13.342;2022-09-29T08:23:17;91495.38;;;8.52;79.72
39613;BME280;25303;48.896;13.342;2022-09-29T08:26:02;91492.63;;;8.54;79.63
39613;BME280;25303;48.896;13.342;2022-09-29T08:28:46;91496.16;;;8.52;79.20
39613;BME280;25303;48.896;13.342;2022-09-29T08:31:42;91495.91;;;8.62;79.48
39613;BME280;25303;48.896;13.342;2022-09-29T08:34:25;91502.69;;;8.70;79.19
39613;BME280;25303;48.896;13.342;2022-09-29T08:37:08;91506.84;;;8.71;78.25
39613;BME280;25303;48.896;13.342;2022-09-29T08:39:52;91510.66;;;8.75;78.49
39613;BME280;25303;48.896;13.342;2022-09-29T08:42:44;91513.66;;;8.79;78.37
39613;BME280;25303;48.896;13.342;2022-09-29T08:45:34;91510.31;;;8.78;77.66
39613;BME280;25303;48.896;13.342;2022-09-29T08:48:22;91511.91;;;8.79;77.49
39613;BME280;25303;48.896;13.342;2022-09-29T08:51:14;91519.88;;;8.85;77.90
39613;BME280;25303;48.896;13.342;2022-09-29T08:54:15;91511.09;;;8.94;77.99
39613;BME280;25303;48.896;13.342;2022-09-29T08:57:18;91507.06;;;9.06;78.22
39613;BME280;25303;48.896;13.342;2022-09-29T09:00:05;91511.22;;;9.22;78.37
39613;BME280;25303;48.896;13.342;2022-09-29T09:03:11;91519.38;;;9.48;78.36
39613;BME280;25303;48.896;13.342;2022-09-29T09:06:09;91516.56;;;9.64;77.94
39613;BME280;25303;48.896;13.342;2022-09-29T09:09:18;91515.31;;;9.82;77.54
39613;BME280;25303;48.896;13.342;2022-09-29T09:12:23;91521.78;;;9.99;76.63
39613;BME280;25303;48.896;13.342;2022-09-29T09:15:22;91524.31;;;10.21;76.68
39613;BME280;25303;48.896;13.342;2022-09-29T09:18:26;91525.66;;;10.39;76.52
39613;BME280;25303;48.896;13.342;2022-09-29T09:21:16;91531.69;;;10.53;76.09
39613;BME280;25303;48.896;13.342;2022-09-29T09:24:05;91534.81;;;10.48;74.20
39613;BME280;25303;48.896;13.342;2022-09-29T09:26:50;91535.25;;;10.52;74.41
39613;BME280;25303;48.896;13.342;2022-09-29T09:29:37;91541.53;;;10.42;72.36
39613;BME280;25303;48.896;13.342;2022-09-29T09:32:27;91532.25;;;10.48;73.30
39613;BME280;25303;48.896;13.342;2022-09-29T09:35:27;91536.63;;;10.54;72.37
39613;BME280;25303;48.896;13.342;2022-09-29T09:38:14;91532.09;;;10.56;71.59
39613;BME280;25303;48.896;13.342;2022-09-29T09:40:59;91530.22;;;10.78;72.35
39613;BME280;25303;48.896;13.342;2022-09-29T09:43:45;91530.13;;;10.93;71.82
39613;BME280;25303;48.896;13.342;2022-09-29T09:46:36;91531.34;;;11.04;71.30
39613;BME280;25303;48.896;13.342;2022-09-29T09:49:26;91528.19;;;11.09;70.37
39613;BME280;25303;48.896;13.342;2022-09-29T09:52:16;91518.16;;;11.28;71.00
39613;BME280;25303;48.896;13.342;2022-09-29T09:55:02;91518.59;;;11.45;70.03
39613;BME280;25303;48.896;13.342;2022-09-29T09:57:57;91521.00;;;11.60;69.72
39613;BME280;25303;48.896;13.342;2022-09-29T10:00:46;91515.03;;;11.46;68.40
39613;BME280;25303;48.896;13.342;2022-09-29T10:03:32;91517.81;;;11.44;68.79
39613;BME280;25303;48.896;13.342;2022-09-29T10:06:17;91513.06;;;11.61;69.56
39613;BME280;25303;48.896;13.342;2022-09-29T10:09:00;91502.97;;;11.93;70.60
39613;BME280;25303;48.896;13.342;2022-09-29T10:11:44;91498.03;;;12.25;69.75
39613;BME280;25303;48.896;13.342;2022-09-29T10:14:27;91493.88;;;12.38;68.93
39613;BME280;25303;48.896;13.342;2022-09-29T10:17:12;91500.41;;;12.47;68.70
39613;BME280;25303;48.896;13.342;2022-09-29T10:19:59;91497.41;;;12.57;68.54
39613;BME280;25303;48.896;13.342;2022-09-29T10:22:44;91506.75;;;12.58;68.18
39613;BME280;25303;48.896;13.342;2022-09-29T10:25:32;91490.50;;;12.37;66.91
39613;BME280;25303;48.896;13.342;2022-09-29T10:28:15;91488.91;;;12.36;67.50
39613;BME280;25303;48.896;13.342;2022-09-29T10:30:58;91482.94;;;12.42;67.52
39613;BME280;25303;48.896;13.342;2022-09-29T10:33:45;91485.91;;;12.46;67.71
39613;BME280;25303;48.896;13.342;2022-09-29T10:36:32;91484.13;;;12.46;67.48
39613;BME280;25303;48.896;13.342;2022-09-29T10:39:31;91491.28;;;12.44;66.26
39613;BME280;25303;48.896;13.342;2022-09-29T10:42:22;91490.28;;;12.45;66.63
39613;BME280;25303;48.896;13.342;2022-09-29T10:45:11;91495.06;;;12.49;67.21
39613;BME280;25303;48.896;13.342;2022-09-29T10:48:10;91498.03;;;12.45;64.97
39613;BME280;25303;48.896;13.342;2022-09-29T10:50:55;91497.88;;;12.27;65.63
39613;BME280;25303;48.896;13.342;2022-09-29T10:53:44;91507.59;;;12.25;66.66
39613;BME280;25303;48.896;13.342;2022-09-29T10:56:29;91504.00;;;12.26;66.89
39613;BME280;25303;48.896;13.342;2022-09-29T10:59:12;91506.38;;;12.34;66.99
39613;BME280;25303;48.896;13.342;2022-09-29T11:01:58;91515.53;;;12.30;66.40
39613;BME280;25303;48.896;13.342;2022-09-29T11:04:44;91505.19;;;12.16;66.27
39613;BME280;25303;48.896;13.342;2022-09-29T11:07:29;91516.72;;;12.21;66.68
39613;BME280;25303;48.896;13.342;2022-09-29T11:10:27;91503.41;;;12.24;66.51
39613;BME280;25303;48.896;13.342;2022-09-29T11:13:33;91509.38;;;12.31;66.69
39613;BME280;25303;48.896;13.342;2022-09-29T11:16:20;91515.53;;;12.23;65.72
39613;BME280;25303;48.896;13.342;2022-09-29T11:19:07;91513.13;;;12.22;66.23
39613;BME280;25303;48.896;13.342;2022-09-29T11:22:14;91516.91;;;12.19;66.09
39613;BME280;25303;48.896;13.342;2022-09-29T11:28:20;91524.06;;;12.10;66.04
39613;BME280;25303;48.896;13.342;2022-09-29T11:31:25;91524.66;;;12.06;65.72
39613;BME280;25303;48.896;13.342;2022-09-29T11:34:30;91520.47;;;11.98;65.20
39613;BME280;25303;48.896;13.342;2022-09-29T11:37:29;91516.88;;;11.92;65.23
39613;BME280;25303;48.896;13.342;2022-09-29T11:40:27;91521.06;;;12.00;65.96
39613;BME280;25303;48.896;13.342;2022-09-29T11:43:25;91517.91;;;12.11;66.39
39613;BME280;25303;48.896;13.342;2022-09-29T11:46:23;91517.13;;;12.24;66.02
39613;BME280;25303;48.896;13.342;2022-09-29T11:49:17;91519.72;;;12.24;65.58
39613;BME280;25303;48.896;13.342;2022-09-29T11:52:28;91522.66;;;12.28;64.95
39613;BME280;25303;48.896;13.342;2022-09-29T11:55:29;91517.72;;;12.40;65.04
39613;BME280;25303;48.896;13.342;2022-09-29T11:58:26;91525.44;;;12.46;64.92
39613;BME280;25303;48.896;13.342;2022-09-29T12:01:26;91521.44;;;12.51;64.87
39613;BME280;25303;48.896;13.342;2022-09-29T12:04:26;91518.09;;;12.50;64.27
39613;BME280;25303;48.896;13.342;2022-09-29T12:07:22;91529.41;;;12.49;64.58
39613;BME280;25303;48.896;13.342;2022-09-29T12:10:26;91516.88;;;12.53;64.46
39613;BME280;25303;48.896;13.342;2022-09-29T12:13:21;91524.03;;;12.57;64.99
39613;BME280;25303;48.896;13.342;2022-09-29T12:16:10;91520.84;;;12.62;64.87
39613;BME280;25303;48.896;13.342;2022-09-29T12:18:57;91512.28;;;12.68;65.19
39613;BME280;25303;48.896;13.342;2022-09-29T12:21:46;91506.50;;;12.66;64.58
39613;BME280;25303;48.896;13.342;2022-09-29T12:24:34;91518.25;;;12.62;64.90
39613;BME280;25303;48.896;13.342;2022-09-29T12:27:21;91498.00;;;12.59;64.72
39613;BME280;25303;48.896;13.342;2022-09-29T12:30:14;91506.56;;;12.53;64.85
39613;BME280;25303;48.896;13.342;2022-09-29T12:33:04;91501.00;;;12.49;64.86
39613;BME280;25303;48.896;13.342;2022-09-29T12:35:56;91505.38;;;12.49;64.96
39613;BME280;25303;48.896;13.342;2022-09-29T12:38:45;91495.06;;;12.49;65.01
39613;BME280;25303;48.896;13.342;2022-09-29T12:41:32;91494.25;;;12.48;65.18
39613;BME280;25303;48.896;13.342;2022-09-29T12:44:21;91493.66;;;12.53;65.49
39613;BME280;25303;48.896;13.342;2022-09-29T12:47:15;91500.59;;;12.59;65.27
39613;BME280;25303;48.896;13.342;2022-09-29T12:50:04;91499.97;;;12.64;65.39
39613;BME280;25303;48.896;13.342;2022-09-29T12:52:56;91499.97;;;12.64;65.35
39613;BME280;25303;48.896;13.342;2022-09-29T12:55:46;91498.78;;;12.59;65.29
39613;BME280;25303;48.896;13.342;2022-09-29T12:58:36;91501.38;;;12.53;65.18
39613;BME280;25303;48.896;13.342;2022-09-29T13:01:23;91506.38;;;12.48;65.62
39613;BME280;25303;48.896;13.342;2022-09-29T13:04:30;91509.16;;;12.39;65.28
39613;BME280;25303;48.896;13.342;2022-09-29T13:10:39;91515.53;;;12.30;65.46
39613;BME280;25303;48.896;13.342;2022-09-29T13:13:47;91521.09;;;12.27;65.58
39613;BME280;25303;48.896;13.342;2022-09-29T13:16:43;91525.84;;;12.23;65.46
39613;BME280;25303;48.896;13.342;2022-09-29T13:20:01;91521.69;;;12.15;65.45
39613;BME280;25303;48.896;13.342;2022-09-29T13:23:03;91521.09;;;12.13;65.82
39613;BME280;25303;48.896;13.342;2022-09-29T13:26:02;91523.25;;;12.10;65.60
39613;BME280;25303;48.896;13.342;2022-09-29T13:28:49;91517.91;;;12.05;65.69
39613;BME280;25303;48.896;13.342;2022-09-29T13:31:36;91521.06;;;12.00;65.76
39613;BME280;25303;48.896;13.342;2022-09-29T13:34:29;91531.59;;;11.98;66.11
39613;BME280;25303;48.896;13.342;2022-09-29T13:37:14;91523.63;;;11.93;66.34
39613;BME280;25303;48.896;13.342;2022-09-29T13:40:00;91531.78;;;11.90;66.83
39613;BME280;25303;48.896;13.342;2022-09-29T13:42:54;91526.19;;;11.86;66.70
39613;BME280;25303;48.896;13.342;2022-09-29T13:45:41;91537.91;;;11.82;66.96
39613;BME280;25303;48.896;13.342;2022-09-29T13:48:46;91537.69;;;11.77;66.99
39613;BME280;25303;48.896;13.342;2022-09-29T13:51:49;91535.50;;;11.74;67.12
39613;BME280;25303;48.896;13.342;2022-09-29T13:54:40;91531.34;;;11.73;67.73
39613;BME280;25303;48.896;13.342;2022-09-29T13:57:23;91540.28;;;11.70;67.53
39613;BME280;25303;48.896;13.342;2022-09-29T14:00:19;91537.69;;;11.64;67.24
39613;BME280;25303;48.896;13.342;2022-09-29T14:03:05;91531.53;;;11.58;67.59
39613;BME280;25303;48.896;13.342;2022-09-29T14:06:13;91533.88;;;11.53;67.89
39613;BME280;25303;48.896;13.342;2022-09-29T14:09:18;91541.78;;;11.51;67.94
39613;BME280;25303;48.896;13.342;2022-09-29T14:12:07;91544.97;;;11.47;67.84
39613;BME280;25303;48.896;13.342;2022-09-29T14:14:53;91552.50;;;11.42;67.59
39613;BME280;25303;48.896;13.342;2022-09-29T14:17:43;91547.50;;;11.33;67.70
39613;BME280;25303;48.896;13.342;2022-09-29T14:20:32;91558.38;;;11.29;68.00
39613;BME280;25303;48.896;13.342;2022-09-29T14:23:49;91551.81;;;11.26;68.67
39613;BME280;25303;48.896;13.342;2022-09-29T14:26:45;91563.16;;;11.25;69.42
39613;BME280;25303;48.896;13.342;2022-09-29T14:29:31;91555.78;;;11.15;69.04
39613;BME280;25303;48.896;13.342;2022-09-29T14:32:19;91554.94;;;11.08;69.16
39613;BME280;25303;48.896;13.342;2022-09-29T14:35:13;91559.84;;;11.03;69.35
39613;BME280;25303;48.896;13.342;2022-09-29T14:38:01;91560.84;;;11.02;69.17
39613;BME280;25303;48.896;13.342;2022-09-29T14:40:55;91573.91;;;11.00;69.40
39613;BME280;25303;48.896;13.342;2022-09-29T14:43:41;91574.13;;;10.99;69.62
39613;BME280;25303;48.896;13.342;2022-09-29T14:53:53;91584.97;;;10.94;70.22
39613;BME280;25303;48.896;13.342;2022-09-29T14:56:49;91583.81;;;10.97;70.39
39613;BME280;25303;48.896;13.342;2022-09-29T14:59:43;91584.78;;;10.96;70.26
39613;BME280;25303;48.896;13.342;2022-09-29T15:02:30;91582.38;;;10.94;70.08
39613;BME280;25303;48.896;13.342;2022-09-29T15:05:24;91584.56;;;10.90;70.02